Time;durP1;ratioP1;P1;durP2;ratioP2;P2;SDS_P1;SDS_P2;PMS_P1;PMS_P2;Temp;Humidity;BMP_temperature;BMP_pressure;BME280_temperature;BME280_humidity;BME280_pressure;Samples;Min_cycle;Max_cycle;Signal;HPM_P1;HPM_P2
2021/07/02 00:01:53;;;;;;;16.52;5.70;;;;;;;24.90;86.57;100823.90;1755259;81;21218;-74
2021/07/02 00:04:25;;;;;;;9.50;5.20;;;;;;;24.97;86.46;100819.87;1755696;81;21174;-70
2021/07/02 00:06:58;;;;;;;10.10;4.80;;;;;;;25.04;86.24;100826.38;1759730;81;21225;-70
2021/07/02 00:09:33;;;;;;;9.33;5.17;;;;;;;25.08;85.94;100833.03;1723492;82;21195;-67
2021/07/02 00:12:06;;;;;;;13.95;5.97;;;;;;;25.11;85.85;100836.60;1741873;82;21270;-67
2021/07/02 00:14:39;;;;;;;8.38;5.25;;;;;;;25.12;85.67;100846.78;1741987;82;21669;-67
2021/07/02 00:17:12;;;;;;;13.58;5.45;;;;;;;25.14;85.47;100852.94;1742277;82;21270;-69
2021/07/02 00:19:44;;;;;;;8.87;5.00;;;;;;;25.16;85.42;100854.83;1742531;82;21344;-67
2021/07/02 00:22:17;;;;;;;10.00;5.60;;;;;;;25.16;85.52;100857.66;1742200;82;21447;-66
2021/07/02 00:24:50;;;;;;;12.90;5.28;;;;;;;25.19;85.51;100853.55;1741400;79;21591;-69
2021/07/02 00:27:22;;;;;;;9.87;5.30;;;;;;;25.20;85.16;100844.41;1730491;81;21183;-69
2021/07/02 00:29:55;;;;;;;10.90;5.22;;;;;;;25.20;85.16;100844.41;1726959;81;21191;-67
2021/07/02 00:32:29;;;;;;;9.23;5.17;;;;;;;25.21;85.13;100847.48;1729936;81;21376;-66
2021/07/02 00:35:01;;;;;;;14.03;5.55;;;;;;;25.18;85.17;100847.60;1730897;82;21215;-67
2021/07/02 00:37:34;;;;;;;11.53;6.10;;;;;;;25.19;85.22;100838.49;1721913;81;21175;-68
2021/07/02 00:40:08;;;;;;;12.35;6.30;;;;;;;25.18;85.05;100828.31;1730549;83;21191;-67
2021/07/02 00:42:40;;;;;;;14.43;6.47;;;;;;;25.09;85.00;100825.58;1722797;83;21310;-66
2021/07/02 00:45:13;;;;;;;16.42;6.40;;;;;;;24.98;85.40;100818.69;1723135;83;21207;-67
2021/07/02 00:47:46;;;;;;;;;;;;;;;24.87;85.71;100828.84;1728748;82;21227;-66
2021/07/02 00:50:18;;;;;;;8.98;5.90;;;;;;;24.79;86.27;100829.80;1726385;83;20251;-69
2021/07/02 00:52:52;;;;;;;10.10;5.30;;;;;;;24.69;86.76;100835.91;1729864;82;21337;-67
2021/07/02 00:55:25;;;;;;;13.53;6.15;;;;;;;24.64;87.16;100831.06;1736028;82;21187;-66
2021/07/02 00:57:59;;;;;;;7.70;6.00;;;;;;;24.64;87.52;100831.06;1740220;81;21179;-68
2021/07/02 01:00:33;;;;;;;12.68;7.05;;;;;;;24.65;87.61;100819.92;1729974;83;21373;-70
2021/07/02 01:03:06;;;;;;;13.13;6.97;;;;;;;24.66;87.61;100821.58;1724860;82;21867;-76
2021/07/02 01:05:40;;;;;;;8.83;6.17;;;;;;;24.74;87.52;100816.41;1745817;82;21345;-70
2021/07/02 01:08:13;;;;;;;12.78;6.95;;;;;;;24.81;87.28;100808.95;1732868;83;21814;-76
2021/07/02 01:10:47;;;;;;;10.68;5.87;;;;;;;24.85;87.00;100824.70;1745837;81;21179;-71
2021/07/02 01:13:21;;;;;;;14.55;6.70;;;;;;;24.86;86.85;100809.33;1693908;85;21362;-69
2021/07/02 01:15:55;;;;;;;;;;;;;;;24.84;86.82;100810.25;1696551;85;21349;-71
2021/07/02 01:18:28;;;;;;;9.87;6.80;;;;;;;24.85;86.92;100803.39;1713325;82;20264;-71
2021/07/02 01:21:01;;;;;;;;;;;;;;;24.77;87.08;100789.55;1748400;82;21207;-71
2021/07/02 01:23:34;;;;;;;8.45;6.62;;;;;;;24.72;87.39;100794.61;1745955;82;20256;-71
2021/07/02 01:26:07;;;;;;;14.43;7.28;;;;;;;24.66;87.92;100798.86;1731266;82;21422;-71
2021/07/02 01:28:43;;;;;;;8.78;6.20;;;;;;;24.63;88.05;100791.86;1767282;81;21406;-69
2021/07/02 01:31:16;;;;;;;9.28;6.15;;;;;;;24.60;88.21;100796.00;1725337;82;21378;-69
2021/07/02 01:33:49;;;;;;;11.65;6.33;;;;;;;24.63;88.38;100802.41;1767078;81;21179;-70
2021/07/02 01:36:25;;;;;;;14.03;6.70;;;;;;;24.63;88.63;100808.09;1767316;81;21396;-71
2021/07/02 01:38:59;;;;;;;11.35;7.35;;;;;;;24.68;88.97;100802.19;1766912;81;21321;-70
2021/07/02 01:41:32;;;;;;;14.07;6.37;;;;;;;24.78;88.68;100811.67;1723475;83;21808;-69
2021/07/02 01:44:12;;;;;;;7.78;6.05;;;;;;;24.78;88.38;100805.41;1724844;82;21335;-71
2021/07/02 01:46:48;;;;;;;12.07;6.30;;;;;;;24.78;88.33;100807.41;1766799;81;21760;-70
2021/07/02 01:49:21;;;;;;;8.85;6.15;;;;;;;24.77;88.36;100812.85;1767135;81;21187;-70
2021/07/02 01:51:56;;;;;;;9.98;6.72;;;;;;;24.75;88.26;100818.07;1766946;81;21318;-68
2021/07/02 01:54:30;;;;;;;9.15;6.17;;;;;;;24.75;88.43;100826.59;1767082;81;21844;-71
2021/07/02 01:57:26;;;;;;;18.90;6.95;;;;;;;24.73;88.48;100811.88;1725072;82;21224;-69
2021/07/02 02:00:01;;;;;;;12.18;6.30;;;;;;;24.71;88.62;100808.00;1766833;81;21195;-68
2021/07/02 02:02:35;;;;;;;8.68;6.12;;;;;;;24.74;89.01;100805.05;1724765;82;21692;-69
2021/07/02 02:05:10;;;;;;;10.00;6.40;;;;;;;24.80;88.92;100807.30;1725084;82;21276;-69
2021/07/02 02:07:43;;;;;;;9.98;5.70;;;;;;;24.88;88.89;100804.12;1725243;82;21326;-70
2021/07/02 02:10:16;;;;;;;12.43;6.22;;;;;;;24.96;88.60;100800.33;1767179;81;21888;-69
2021/07/02 02:12:48;;;;;;;8.97;5.70;;;;;;;25.00;88.26;100787.89;1725245;82;21239;-69
2021/07/02 02:15:21;;;;;;;9.00;6.43;;;;;;;25.03;87.85;100779.25;1725462;83;21188;-69
2021/07/02 02:17:55;;;;;;;12.58;6.55;;;;;;;25.03;87.54;100784.93;1725211;82;21195;-69
2021/07/02 02:20:28;;;;;;;9.93;5.45;;;;;;;24.98;87.35;100774.62;1727941;82;21888;-69
2021/07/02 02:23:01;;;;;;;9.75;6.58;;;;;;;24.92;87.37;100763.88;1713398;83;21192;-81
2021/07/02 02:25:33;;;;;;;12.23;5.97;;;;;;;24.91;87.58;100764.45;1759226;81;21903;-69
2021/07/02 02:28:07;;;;;;;8.15;6.08;;;;;;;24.90;87.64;100761.95;1747712;82;21344;-70
2021/07/02 02:30:40;;;;;;;9.55;7.22;;;;;;;24.92;87.62;100761.03;1745384;82;21748;-68
2021/07/02 02:33:13;;;;;;;13.65;6.83;;;;;;;24.95;87.33;100756.04;1745619;82;21321;-68
2021/07/02 02:35:47;;;;;;;13.28;6.55;;;;;;;24.99;87.45;100752.73;1745190;82;21171;-69
2021/07/02 02:38:21;;;;;;;6.95;6.22;;;;;;;24.99;87.19;100752.13;1745497;82;21332;-74
2021/07/02 02:40:55;;;;;;;7.80;6.15;;;;;;;24.96;87.08;100754.27;1745186;82;21191;-69
2021/07/02 02:43:28;;;;;;;9.58;6.15;;;;;;;24.95;86.96;100744.67;1745501;82;21195;-69
2021/07/02 02:46:01;;;;;;;11.33;7.45;;;;;;;24.92;86.99;100747.62;1745497;82;21299;-71
2021/07/02 02:48:35;;;;;;;10.40;7.53;;;;;;;24.90;87.14;100752.00;1732864;80;21868;-68
2021/07/02 02:51:09;;;;;;;14.75;7.17;;;;;;;24.91;87.23;100750.23;1745145;82;21333;-69
2021/07/02 02:53:43;;;;;;;10.80;6.75;;;;;;;24.97;87.06;100762.19;1745057;81;21741;-70
2021/07/02 02:56:15;;;;;;;8.10;6.65;;;;;;;24.93;86.86;100757.81;1745496;82;21499;-70
2021/07/02 02:58:48;;;;;;;10.58;6.83;;;;;;;24.94;87.00;100761.49;1745230;82;21753;-69
2021/07/02 03:01:22;;;;;;;11.25;7.17;;;;;;;24.99;87.02;100757.00;1743572;82;21424;-69
2021/07/02 03:03:56;;;;;;;13.88;7.28;;;;;;;25.04;86.69;100755.31;1745280;82;21929;-73
2021/07/02 03:06:28;;;;;;;10.78;7.37;;;;;;;25.02;86.55;100756.27;1745528;82;21836;-69
2021/07/02 03:09:02;;;;;;;16.42;7.08;;;;;;;24.99;86.49;100758.42;1723181;82;21242;-69
2021/07/02 03:11:35;;;;;;;13.53;7.08;;;;;;;24.99;86.65;100764.91;1715781;83;21395;-68
2021/07/02 03:14:12;;;;;;;11.90;7.75;;;;;;;25.08;86.52;100763.38;1715905;83;21265;-70
2021/07/02 03:16:45;;;;;;;12.82;7.95;;;;;;;25.17;86.36;100769.80;1715961;83;21404;-69
2021/07/02 03:19:19;;;;;;;15.53;7.45;;;;;;;25.24;86.05;100775.13;1715867;83;21878;-69
2021/07/02 03:21:51;;;;;;;;;;;;;;;25.33;85.66;100780.69;1695855;83;21811;-69
2021/07/02 03:24:25;;;;;;;;;;;;;;;25.35;85.47;100779.77;1718070;83;20539;-71
2021/07/02 03:27:03;;;;;;;16.30;7.97;;;;;;;25.40;85.39;100775.23;1732779;82;20570;-70
2021/07/02 03:29:36;;;;;;;11.00;7.62;;;;;;;25.41;85.10;100782.61;1758580;81;21314;-70
2021/07/02 03:32:10;;;;;;;9.93;7.53;;;;;;;25.38;85.12;100783.30;1737625;81;21183;-70
2021/07/02 03:34:47;;;;;;;10.10;8.23;;;;;;;25.37;85.09;100775.34;1729325;82;21189;-69
2021/07/02 03:37:21;;;;;;;12.23;7.65;;;;;;;25.37;85.21;100783.88;1730317;82;21239;-70
2021/07/02 03:39:56;;;;;;;10.15;7.40;;;;;;;25.38;85.14;100785.56;1730207;83;21199;-70
2021/07/02 03:42:30;;;;;;;13.35;7.58;;;;;;;25.45;85.19;100783.52;1730471;83;21238;-70
2021/07/02 03:45:05;;;;;;;12.60;8.00;;;;;;;25.51;85.02;100791.47;1730276;82;21809;-70
2021/07/02 03:47:40;;;;;;;12.30;8.33;;;;;;;25.60;85.07;100792.77;1730359;82;21900;-79
2021/07/02 03:50:13;;;;;;;11.22;7.80;;;;;;;25.69;84.90;100793.45;1729995;83;21271;-68
2021/07/02 03:52:48;;;;;;;14.25;7.40;;;;;;;25.82;84.62;100783.69;1725436;83;21780;-71
2021/07/02 03:55:21;;;;;;;10.93;7.58;;;;;;;26.00;84.10;100795.05;1728109;83;21255;-70
2021/07/02 03:57:53;;;;;;;10.18;7.45;;;;;;;26.17;83.45;100797.02;1730593;83;21384;-70
2021/07/02 04:00:26;;;;;;;8.20;6.53;;;;;;;26.35;82.27;100793.25;1727692;83;21187;-71
2021/07/02 04:02:58;;;;;;;14.93;7.00;;;;;;;26.46;81.20;100794.38;1752995;81;22037;-70
2021/07/02 04:05:32;;;;;;;12.30;7.85;;;;;;;26.51;80.84;100798.40;1748613;82;21195;-68
2021/07/02 04:08:06;;;;;;;15.85;7.00;;;;;;;26.51;80.05;100795.55;1748757;82;21254;-69
2021/07/02 04:10:40;;;;;;;10.85;7.97;;;;;;;26.49;80.10;100795.91;1722438;82;21336;-69
2021/07/02 04:13:12;;;;;;;11.48;6.85;;;;;;;26.54;79.79;100791.41;1754165;81;21198;-69
2021/07/02 04:15:47;;;;;;;9.95;6.37;;;;;;;26.49;79.31;100786.52;1718991;83;21747;-68
2021/07/02 04:18:19;;;;;;;17.90;7.75;;;;;;;26.40;79.56;100785.25;1718765;83;21248;-71
2021/07/02 04:20:52;;;;;;;15.78;7.92;;;;;;;26.35;79.45;100777.00;1729418;81;21222;-72
2021/07/02 04:23:25;;;;;;;12.18;8.43;;;;;;;26.28;79.65;100781.66;1728936;83;21200;-70
2021/07/02 04:25:57;;;;;;;11.67;6.93;;;;;;;26.25;79.72;100778.94;1725987;83;21171;-72
2021/07/02 04:28:31;;;;;;;12.80;6.85;;;;;;;26.26;79.79;100779.16;1725255;83;21235;-69
2021/07/02 04:31:04;;;;;;;10.60;7.53;;;;;;;26.25;79.42;100780.94;1761092;81;21196;-70
2021/07/02 04:33:36;;;;;;;9.63;6.53;;;;;;;26.20;79.27;100777.77;1727862;83;21187;-71
2021/07/02 04:36:09;;;;;;;13.05;7.03;;;;;;;26.18;79.51;100790.70;1727831;83;21694;-71
2021/07/02 04:38:43;;;;;;;10.45;6.97;;;;;;;26.24;79.62;100790.09;1719582;83;21754;-76
2021/07/02 04:41:16;;;;;;;;;;;;;;;26.29;79.49;100781.88;1737284;82;21325;-72
2021/07/02 04:43:52;;;;;;;11.18;7.17;;;;;;;26.31;79.35;100766.09;1739910;82;20188;-72
2021/07/02 04:46:25;;;;;;;16.82;8.05;;;;;;;26.39;79.60;100763.66;1720210;82;21388;-73
2021/07/02 04:48:59;;;;;;;16.73;7.40;;;;;;;26.46;79.37;100768.74;1739747;82;21222;-72
2021/07/02 04:51:33;;;;;;;12.10;8.18;;;;;;;26.53;78.98;100775.47;1745192;82;21351;-70
2021/07/02 04:54:05;;;;;;;15.78;8.18;;;;;;;26.63;78.55;100783.50;1733064;82;21186;-71
2021/07/02 04:56:38;;;;;;;15.63;7.22;;;;;;;26.71;78.24;100780.25;1745645;82;21405;-83
2021/07/02 04:59:10;;;;;;;14.63;7.30;;;;;;;26.70;77.57;100782.87;1745197;82;21206;-75
2021/07/02 05:01:43;;;;;;;12.80;7.30;;;;;;;26.72;77.43;100784.17;1745399;82;21325;-75
2021/07/02 05:04:15;;;;;;;12.07;7.45;;;;;;;26.82;77.37;100786.45;1744599;82;21763;-69
2021/07/02 05:06:48;;;;;;;12.50;5.87;;;;;;;27.02;77.27;100784.54;1743332;82;21199;-71
2021/07/02 05:09:22;;;;;;;11.83;7.20;;;;;;;27.29;77.17;100787.31;1744883;82;21340;-70
2021/07/02 05:11:55;;;;;;;12.63;6.47;;;;;;;27.58;75.15;100782.52;1738331;82;21734;-70
2021/07/02 05:14:27;;;;;;;10.75;6.50;;;;;;;27.61;73.66;100782.61;1740715;82;21334;-70
2021/07/02 05:17:02;;;;;;;11.43;5.92;;;;;;;27.56;73.13;100774.33;1745383;82;21210;-70
2021/07/02 05:19:39;;;;;;;13.55;6.17;;;;;;;27.52;72.45;100752.00;1739748;82;21329;-71
2021/07/02 05:22:22;;;;;;;12.85;7.05;;;;;;;27.39;72.11;100727.64;1745192;82;21439;-68
2021/07/02 05:24:54;;;;;;;9.88;6.45;;;;;;;27.34;72.39;100723.64;1736536;82;21211;-69
2021/07/02 05:27:27;;;;;;;9.48;5.15;;;;;;;27.28;72.75;100721.47;1727265;82;21179;-70
2021/07/02 05:29:59;;;;;;;17.50;6.03;;;;;;;27.22;73.02;100716.41;1744684;82;21322;-71
2021/07/02 05:32:32;;;;;;;7.40;5.53;;;;;;;27.23;73.44;100728.05;1707431;82;21743;-70
2021/07/02 05:35:08;;;;;;;11.08;5.28;;;;;;;27.22;73.74;100728.66;1725291;81;21329;-68
2021/07/02 05:37:43;;;;;;;7.60;4.78;;;;;;;27.15;74.08;100711.34;1681436;84;21234;-70
2021/07/02 05:40:17;;;;;;;6.67;4.30;;;;;;;27.16;73.99;100705.90;1722576;83;21358;-73
2021/07/02 05:42:50;;;;;;;11.60;4.75;;;;;;;27.21;74.43;100707.63;1728311;82;21333;-71
2021/07/02 05:45:24;;;;;;;11.03;6.35;;;;;;;27.13;74.80;100702.93;1734884;81;21432;-73
2021/07/02 05:48:05;;;;;;;11.15;4.62;;;;;;;27.12;74.81;100706.98;1724785;81;21171;-73
2021/07/02 05:50:35;;;;;;;13.70;5.30;;;;;;;27.17;75.06;100706.70;1728481;81;21174;-76
2021/07/02 05:53:09;;;;;;;9.33;5.05;;;;;;;27.13;74.59;100705.78;1697010;83;21221;-74
2021/07/02 05:55:42;;;;;;;6.47;5.25;;;;;;;26.90;74.96;100719.05;1684471;83;21290;-72
2021/07/02 05:58:15;;;;;;;6.83;5.70;;;;;;;26.69;76.06;100709.35;1701256;83;21437;-73
2021/07/02 06:00:47;;;;;;;7.45;5.35;;;;;;;26.51;76.89;100706.61;1673981;84;21245;-73
2021/07/02 06:03:21;;;;;;;7.87;5.25;;;;;;;26.36;77.45;100711.70;1706152;82;21170;-74
2021/07/02 06:05:53;;;;;;;11.38;5.50;;;;;;;26.26;78.05;100735.59;1711140;83;21241;-72
2021/07/02 06:08:26;;;;;;;9.70;6.45;;;;;;;26.12;78.39;100738.89;1714284;83;22394;-73
2021/07/02 06:11:00;;;;;;;10.30;5.60;;;;;;;25.99;79.22;100738.72;1689578;83;21428;-73
2021/07/02 06:13:33;;;;;;;8.43;5.22;;;;;;;26.06;79.59;100748.05;1711916;83;21184;-73
2021/07/02 06:16:06;;;;;;;5.90;4.10;;;;;;;26.11;78.72;100752.06;1708623;82;21237;-71
2021/07/02 06:18:40;;;;;;;11.03;5.78;;;;;;;26.12;78.51;100755.14;1670597;84;21182;-75
2021/07/02 06:21:12;;;;;;;11.03;5.78;;;;;;;26.10;78.90;100766.88;1699514;83;21600;-72
2021/07/02 06:23:46;;;;;;;12.00;5.40;;;;;;;26.27;79.28;100775.12;1697324;83;21672;-73
2021/07/02 06:26:20;;;;;;;11.53;5.45;;;;;;;26.55;78.48;100767.41;1671975;84;21358;-70
2021/07/02 06:28:55;;;;;;;12.35;5.85;;;;;;;26.78;77.87;100766.19;1698093;83;21270;-73
2021/07/02 06:31:27;;;;;;;8.45;5.10;;;;;;;26.95;76.63;100780.09;1675032;84;21402;-69
2021/07/02 06:34:00;;;;;;;11.95;5.67;;;;;;;27.06;75.22;100782.00;1698549;83;21345;-72
2021/07/02 06:36:36;;;;;;;12.40;5.55;;;;;;;27.26;74.90;100788.66;1697614;83;21214;-73
2021/07/02 06:39:08;;;;;;;13.10;5.85;;;;;;;27.42;73.94;100788.05;1685477;83;21366;-74
2021/07/02 06:41:41;;;;;;;7.37;5.15;;;;;;;27.60;73.67;100772.98;1670220;85;21216;-71
2021/07/02 06:44:13;;;;;;;8.10;5.00;;;;;;;27.89;73.24;100772.45;1722257;82;21847;-74
2021/07/02 06:46:47;;;;;;;9.85;5.10;;;;;;;28.21;72.14;100770.52;1720936;82;21206;-74
2021/07/02 06:49:20;;;;;;;6.08;4.80;;;;;;;28.37;70.00;100766.97;1722963;82;21441;-74
2021/07/02 06:51:53;;;;;;;11.43;4.87;;;;;;;28.42;68.49;100773.82;1697660;83;21661;-71
2021/07/02 06:54:25;;;;;;;7.22;4.40;;;;;;;28.39;67.28;100770.30;1718848;83;21468;-73
2021/07/02 06:57:14;;;;;;;9.23;4.45;;;;;;;28.39;67.09;100770.30;1722912;82;21266;-73
2021/07/02 06:59:40;;;;;;;7.37;5.15;;;;;;;28.28;66.27;100769.22;1715926;82;21344;-74
2021/07/02 07:02:13;;;;;;;9.43;4.75;;;;;;;28.10;66.81;100772.91;1696238;83;21246;-73
2021/07/02 07:04:45;;;;;;;10.23;4.72;;;;;;;28.21;66.12;100773.37;1694966;83;21222;-74
2021/07/02 07:07:18;;;;;;;8.53;5.37;;;;;;;28.25;65.90;100762.81;1723011;83;21195;-74
2021/07/02 07:09:51;;;;;;;15.13;5.67;;;;;;;28.37;65.91;100761.26;1727891;82;21239;-77
2021/07/02 07:12:24;;;;;;;7.60;5.20;;;;;;;28.62;65.69;100756.84;1735124;82;21867;-74
2021/07/02 07:14:58;;;;;;;6.87;5.30;;;;;;;28.87;65.24;100759.55;1726656;82;21685;-73
2021/07/02 07:17:32;;;;;;;10.93;5.25;;;;;;;28.98;64.59;100754.88;1677786;85;21865;-77
2021/07/02 07:20:06;;;;;;;16.27;5.72;;;;;;;28.96;64.73;100750.16;1684292;85;21517;-73
2021/07/02 07:22:38;;;;;;;12.60;5.83;;;;;;;28.92;64.58;100762.09;1694813;83;21348;-74
2021/07/02 07:25:15;;;;;;;7.45;5.40;;;;;;;28.83;63.54;100760.11;1700583;83;21765;-71
2021/07/02 07:27:48;;;;;;;7.70;5.15;;;;;;;28.78;63.81;100771.02;1698037;83;21705;-73
2021/07/02 07:30:20;;;;;;;14.40;5.28;;;;;;;28.70;63.45;100761.51;1696736;83;21341;-74
2021/07/02 07:32:54;;;;;;;7.47;4.95;;;;;;;28.63;63.32;100765.67;1696160;83;21337;-75
2021/07/02 07:38:07;;;;;;;10.50;5.28;;;;;;;28.38;63.73;100767.19;1710245;83;21264;-77
2021/07/02 07:40:40;;;;;;;8.18;4.53;;;;;;;28.20;64.43;100768.83;1688112;83;21719;-73
2021/07/02 07:43:13;;;;;;;7.90;4.53;;;;;;;28.05;64.15;100766.89;1713135;83;21279;-74
2021/07/02 07:45:45;;;;;;;10.82;4.87;;;;;;;27.80;64.71;100765.53;1708103;83;21288;-77
2021/07/02 07:48:18;;;;;;;10.68;4.72;;;;;;;27.65;65.41;100760.66;1712317;83;21339;-72
2021/07/02 07:51:00;;;;;;;8.85;5.60;;;;;;;27.56;65.56;100759.21;1713045;83;21345;-73
2021/07/02 07:53:26;;;;;;;8.65;5.25;;;;;;;27.44;65.92;100755.05;1703826;83;21708;-78
2021/07/02 07:55:58;;;;;;;13.10;5.83;;;;;;;27.33;66.44;100758.86;1711642;83;21880;-73
2021/07/02 07:58:31;;;;;;;11.20;5.15;;;;;;;27.21;66.79;100763.25;1717946;83;22020;-75
2021/07/02 08:01:04;;;;;;;10.90;4.90;;;;;;;27.07;67.77;100775.09;1711620;83;21226;-75
2021/07/02 08:03:37;;;;;;;9.73;5.40;;;;;;;26.98;68.08;100775.28;1727437;82;21275;-75
2021/07/02 08:06:11;;;;;;;8.03;5.73;;;;;;;26.90;68.07;100773.23;1736097;82;21718;-76
2021/07/02 08:08:45;;;;;;;8.63;5.12;;;;;;;26.73;68.14;100772.99;1730435;82;22773;-71
2021/07/02 08:11:17;;;;;;;14.85;5.40;;;;;;;26.64;68.97;100765.81;1736549;82;21202;-72
2021/07/02 08:13:50;;;;;;;12.82;5.97;;;;;;;26.62;69.08;100773.88;1734408;82;21194;-76
2021/07/02 08:16:25;;;;;;;8.53;5.22;;;;;;;26.53;69.30;100757.53;1732414;82;21218;-76
2021/07/02 08:18:57;;;;;;;9.75;5.37;;;;;;;26.54;69.29;100754.95;1716321;83;21472;-75
2021/07/02 08:21:30;;;;;;;11.95;5.22;;;;;;;26.49;69.08;100753.17;1714946;83;21394;-74
2021/07/02 08:24:02;;;;;;;7.30;5.47;;;;;;;26.49;69.17;100764.56;1711817;83;21302;-72
2021/07/02 08:26:35;;;;;;;7.40;5.10;;;;;;;26.53;69.47;100771.20;1711441;83;21327;-72
2021/07/02 08:29:26;;;;;;;9.95;5.05;;;;;;;26.58;69.37;100772.36;1707199;83;21202;-73
2021/07/02 08:31:59;;;;;;;16.10;5.17;;;;;;;26.57;69.26;100775.60;1704178;83;21181;-67
2021/07/02 08:34:31;;;;;;;22.17;6.40;;;;;;;26.63;69.84;100768.44;1705952;83;21194;-72
2021/07/02 08:37:07;;;;;;;10.65;6.00;;;;;;;26.73;70.07;100769.30;1687496;84;22460;-68
2021/07/02 08:39:47;;;;;;;11.38;5.45;;;;;;;26.88;69.94;100759.95;1677034;84;21340;-66
2021/07/02 08:42:18;;;;;;;13.05;6.10;;;;;;;26.99;69.22;100757.59;1660415;85;21222;-70
2021/07/02 08:44:54;;;;;;;8.40;5.35;;;;;;;27.08;69.49;100746.21;1691574;84;21481;-71
2021/07/02 08:47:27;;;;;;;15.88;5.78;;;;;;;27.13;68.77;100740.01;1692967;84;21291;-69
2021/07/02 08:49:59;;;;;;;9.50;5.42;;;;;;;27.12;68.52;100731.23;1695017;84;21228;-66
2021/07/02 08:52:33;;;;;;;8.10;5.67;;;;;;;27.10;68.36;100737.30;1662925;85;21251;-67
2021/07/02 08:55:08;;;;;;;9.43;5.28;;;;;;;27.12;68.32;100741.22;1650669;85;21983;-69
2021/07/02 08:57:42;;;;;;;8.10;5.25;;;;;;;27.13;67.41;100742.86;1699875;84;21740;-69
2021/07/02 09:00:15;;;;;;;8.88;5.67;;;;;;;27.17;67.58;100748.06;1653310;85;21792;-74
2021/07/02 09:02:48;;;;;;;9.33;6.05;;;;;;;27.23;67.05;100748.02;1645013;85;21780;-69
2021/07/02 09:05:38;;;;;;;12.15;5.58;;;;;;;27.21;67.12;100747.56;1701144;84;21389;-70
2021/07/02 09:08:17;;;;;;;13.13;5.40;;;;;;;27.28;67.55;100742.03;1639306;85;21258;-71
2021/07/02 09:10:51;;;;;;;12.20;5.28;;;;;;;27.38;67.89;100744.54;1648102;86;21930;-68
2021/07/02 09:13:42;;;;;;;12.60;5.92;;;;;;;27.45;67.07;100739.61;1698979;83;21291;-72
2021/07/02 09:16:41;;;;;;;10.35;5.47;;;;;;;27.51;67.20;100731.80;1639734;87;21785;-68
2021/07/02 09:19:28;;;;;;;10.50;5.90;;;;;;;27.61;67.70;100728.95;1635269;87;21246;-71
2021/07/02 09:22:19;;;;;;;10.70;6.15;;;;;;;27.67;67.67;100725.45;1660770;83;21222;-67
2021/07/02 09:24:52;;;;;;;7.75;4.97;;;;;;;27.76;66.56;100727.47;1707405;83;21242;-71
2021/07/02 09:27:30;;;;;;;6.85;5.60;;;;;;;27.76;63.82;100730.32;1711689;83;21243;-74
2021/07/02 09:30:13;;;;;;;10.85;5.58;;;;;;;27.52;63.90;100736.92;1714697;83;21191;-71
2021/07/02 09:32:50;;;;;;;8.88;5.00;;;;;;;27.33;64.28;100734.84;1660990;85;21452;-77
2021/07/02 09:35:27;;;;;;;11.35;5.08;;;;;;;27.17;64.50;100733.22;1695319;82;21412;-72
2021/07/02 09:38:02;;;;;;;5.97;4.22;;;;;;;27.14;65.29;100740.45;1700541;82;21183;-73
2021/07/02 09:40:39;;;;;;;11.53;4.58;;;;;;;27.09;64.27;100738.50;1699550;83;21461;-73
2021/07/02 09:43:17;;;;;;;5.75;4.40;;;;;;;27.04;64.79;100734.50;1728212;82;21230;-72
2021/07/02 09:45:56;;;;;;;8.20;5.58;;;;;;;27.07;64.67;100732.31;1733032;82;21251;-72
2021/07/02 09:48:31;;;;;;;11.48;5.67;;;;;;;27.06;65.45;100747.78;1724218;82;21847;-73
2021/07/02 09:51:15;;;;;;;9.38;4.58;;;;;;;27.02;65.76;100741.77;1687000;83;21401;-73
2021/07/02 09:53:46;;;;;;;7.78;4.40;;;;;;;26.91;66.03;100744.94;1731240;82;21380;-72
2021/07/02 09:56:23;;;;;;;9.85;4.75;;;;;;;26.73;66.69;100742.23;1723002;82;21186;-73
2021/07/02 09:59:02;;;;;;;10.43;4.80;;;;;;;26.57;67.29;100739.98;1689942;83;21207;-72
2021/07/02 10:01:36;;;;;;;8.53;4.58;;;;;;;26.55;68.06;100733.80;1707581;82;21399;-73
2021/07/02 10:04:11;;;;;;;13.03;4.53;;;;;;;26.58;68.36;100733.89;1702072;83;21274;-72
2021/07/02 10:06:46;;;;;;;9.28;5.17;;;;;;;26.64;68.39;100720.22;1700156;83;21348;-72
2021/07/02 10:09:23;;;;;;;9.25;3.80;;;;;;;26.70;68.44;100715.89;1693298;83;21241;-72
2021/07/02 10:11:55;;;;;;;8.10;4.47;;;;;;;26.84;68.22;100715.67;1679806;83;21724;-72
2021/07/02 10:14:27;;;;;;;8.28;4.33;;;;;;;27.02;68.33;100706.12;1714678;82;21233;-74
2021/07/02 10:17:00;;;;;;;;;;;;;;;27.09;67.54;100699.38;1695671;83;21202;-73
2021/07/02 10:19:35;;;;;;;9.53;4.45;;;;;;;27.13;66.98;100703.16;1731354;82;20256;-71
2021/07/02 10:22:12;;;;;;;10.60;4.50;;;;;;;27.19;66.92;100699.44;1693470;83;21228;-72
2021/07/02 10:24:49;;;;;;;4.50;3.77;;;;;;;27.22;65.75;100703.57;1691580;84;21401;-79
2021/07/02 10:27:25;;;;;;;9.50;5.10;;;;;;;27.10;65.03;100704.50;1686422;83;21971;-72
2021/07/02 10:29:58;;;;;;;10.30;4.78;;;;;;;26.95;65.18;100703.91;1679561;85;21178;-72
2021/07/02 10:32:32;;;;;;;7.83;4.10;;;;;;;26.96;65.32;100700.47;1697260;83;21202;-73
2021/07/02 10:35:06;;;;;;;10.88;4.80;;;;;;;27.06;65.56;100708.47;1697077;83;21213;-72
2021/07/02 10:37:39;;;;;;;9.13;4.35;;;;;;;27.09;64.65;100701.42;1715972;82;21820;-70
2021/07/02 10:40:41;;;;;;;17.57;11.15;;;;;;;27.11;64.68;100706.14;1726964;82;21424;-73
2021/07/02 10:43:26;;;;;;;5.90;4.60;;;;;;;27.10;64.95;100710.20;1739415;82;21344;-72
2021/07/02 10:46:17;;;;;;;11.00;4.62;;;;;;;27.06;65.54;100697.06;1691904;84;23164;-70
2021/07/02 10:49:06;;;;;;;6.20;4.30;;;;;;;27.06;65.93;100709.89;1694148;84;21255;-77
2021/07/02 10:51:48;;;;;;;9.65;4.33;;;;;;;27.18;64.93;100706.96;1725941;82;21729;-77
2021/07/02 10:54:28;;;;;;;6.22;4.47;;;;;;;27.32;63.95;100700.16;1727393;82;21349;-72
2021/07/02 10:57:05;;;;;;;10.80;4.22;;;;;;;27.33;62.36;100690.61;1725026;82;21270;-74
2021/07/02 10:59:45;;;;;;;11.60;4.60;;;;;;;27.28;62.56;100692.33;1724458;82;21242;-71
2021/07/02 11:02:21;;;;;;;5.47;4.15;;;;;;;27.34;62.63;100695.11;1687256;84;21980;-71
2021/07/02 11:04:58;;;;;;;13.08;4.72;;;;;;;27.44;62.65;100694.54;1711375;83;21753;-71
2021/07/02 11:07:38;;;;;;;9.53;4.75;;;;;;;27.49;61.73;100699.96;1726871;82;21333;-72
2021/07/02 11:10:12;;;;;;;6.28;4.00;;;;;;;27.44;61.79;100697.39;1690552;84;21220;-73
2021/07/02 11:12:52;;;;;;;7.72;4.37;;;;;;;27.38;61.85;100697.23;1704757;83;21781;-73
2021/07/02 11:15:24;;;;;;;10.88;5.62;;;;;;;27.24;62.13;100689.17;1696039;84;21205;-73
2021/07/02 11:18:14;;;;;;;10.53;6.17;;;;;;;27.14;62.75;100690.55;1696465;84;21292;-72
2021/07/02 11:20:47;;;;;;;7.67;4.67;;;;;;;27.16;62.99;100692.22;1695576;84;21698;-73
2021/07/02 11:23:21;;;;;;;7.85;5.40;;;;;;;27.25;62.66;100690.01;1695912;84;21240;-74
2021/07/02 11:26:03;;;;;;;10.30;4.90;;;;;;;27.21;62.45;100689.92;1696614;84;21200;-72
2021/07/02 11:28:41;;;;;;;7.62;5.22;;;;;;;27.20;62.62;100691.72;1668151;85;21750;-72
2021/07/02 11:31:17;;;;;;;13.60;4.83;;;;;;;27.27;62.56;100700.44;1729213;82;21384;-71
2021/07/02 11:33:50;;;;;;;9.03;5.40;;;;;;;27.37;62.04;100702.72;1695891;84;21838;-72
2021/07/02 11:36:23;;;;;;;8.55;4.95;;;;;;;27.43;62.11;100705.73;1680193;85;21261;-71
2021/07/02 11:38:56;;;;;;;8.65;4.45;;;;;;;27.53;61.82;100702.27;1723294;82;21389;-72
2021/07/02 11:41:34;;;;;;;11.05;5.47;;;;;;;27.61;61.85;100694.11;1669509;83;21396;-72
2021/07/02 11:44:08;;;;;;;11.15;5.12;;;;;;;27.66;61.53;100690.97;1683635;83;21219;-71
2021/07/02 11:46:43;;;;;;;12.73;4.95;;;;;;;27.67;61.33;100695.47;1670676;85;21189;-70
2021/07/02 11:49:16;;;;;;;6.12;4.80;;;;;;;27.67;61.29;100705.46;1694324;83;21889;-77
2021/07/02 11:51:51;;;;;;;7.60;4.62;;;;;;;27.67;61.43;100706.89;1686364;83;21294;-76
2021/07/02 11:54:24;;;;;;;8.73;4.87;;;;;;;27.68;61.47;100697.70;1678768;85;21756;-73
2021/07/02 11:56:58;;;;;;;8.58;4.80;;;;;;;27.67;61.92;100688.33;1740900;82;21353;-76
2021/07/02 11:59:30;;;;;;;18.30;4.50;;;;;;;27.68;62.22;100691.41;1742342;82;21858;-70